createdAt,value
2023-04-26T00:03:01.934Z,100.00
2023-04-26T00:06:08.875Z,100.00
2023-04-26T00:09:13.468Z,100.00
2023-04-26T00:12:18.290Z,100.00
2023-04-26T00:15:22.773Z,100.00
2023-04-26T00:18:27.245Z,100.00
2023-04-26T00:21:31.918Z,100.00
2023-04-26T00:24:36.497Z,100.00
2023-04-26T00:27:40.996Z,100.00
2023-04-26T00:30:48.811Z,100.00
2023-04-26T00:33:53.359Z,100.00
2023-04-26T00:36:57.905Z,100.00
2023-04-26T00:40:02.619Z,100.00
2023-04-26T00:43:07.408Z,100.00
2023-04-26T00:46:12.512Z,100.00
2023-04-26T00:49:19.539Z,100.00
2023-04-26T00:52:24.678Z,100.00
2023-04-26T00:55:29.542Z,100.00
2023-04-26T00:58:34.096Z,100.00
2023-04-26T01:01:40.612Z,100.00
2023-04-26T01:04:46.764Z,100.00
2023-04-26T01:07:51.991Z,100.00
2023-04-26T01:10:57.290Z,100.00
2023-04-26T01:14:02.129Z,100.00
2023-04-26T01:17:06.843Z,100.00
2023-04-26T01:20:14.339Z,100.00
2023-04-26T01:23:18.930Z,100.00
2023-04-26T01:26:23.401Z,100.00
2023-04-26T01:29:28.119Z,100.00
2023-04-26T01:32:34.906Z,100.00
2023-04-26T01:35:39.535Z,100.00
2023-04-26T01:38:44.092Z,100.00
2023-04-26T01:41:48.546Z,100.00
2023-04-26T01:44:53.022Z,100.00
2023-04-26T01:47:58.293Z,100.00
2023-04-26T01:51:02.788Z,100.00
2023-04-26T01:54:08.691Z,100.00
2023-04-26T01:57:13.191Z,100.00
2023-04-26T02:00:17.870Z,100.00
2023-04-26T02:03:25.878Z,100.00
2023-04-26T02:06:31.604Z,100.00
2023-04-26T02:09:36.101Z,100.00
2023-04-26T02:12:41.808Z,100.00
2023-04-26T02:15:47.377Z,100.00
2023-04-26T02:18:53.513Z,100.00
2023-04-26T02:21:58.553Z,100.00
2023-04-26T02:25:03.390Z,100.00
2023-04-26T02:28:08.004Z,100.00
2023-04-26T02:31:12.488Z,100.00
2023-04-26T02:34:18.006Z,100.00
2023-04-26T02:37:23.524Z,100.00
2023-04-26T02:40:28.089Z,100.00
2023-04-26T02:43:33.591Z,100.00
2023-04-26T02:46:38.261Z,100.00
2023-04-26T02:49:43.624Z,100.00
2023-04-26T02:52:48.173Z,100.00
2023-04-26T02:55:52.640Z,100.00
2023-04-26T02:58:57.162Z,100.00
2023-04-26T03:02:01.993Z,100.00
2023-04-26T03:05:06.746Z,100.00
2023-04-26T03:08:11.253Z,100.00
2023-04-26T03:11:15.949Z,100.00
2023-04-26T03:14:20.791Z,100.00
2023-04-26T03:17:25.744Z,100.00
2023-04-26T03:20:30.288Z,100.00
2023-04-26T03:23:34.860Z,100.00
2023-04-26T03:26:39.364Z,100.00
2023-04-26T03:29:44.299Z,100.00
2023-04-26T03:32:49.544Z,100.00
2023-04-26T03:35:55.959Z,100.00
2023-04-26T03:39:00.539Z,100.00
2023-04-26T03:42:05.212Z,100.00
2023-04-26T03:45:11.506Z,100.00
2023-04-26T03:48:17.060Z,100.00
2023-04-26T03:51:21.954Z,100.00
2023-04-26T03:54:27.957Z,100.00
2023-04-26T03:57:32.978Z,100.00
2023-04-26T04:00:39.109Z,100.00
2023-04-26T04:03:44.154Z,100.00
2023-04-26T04:06:48.742Z,100.00
2023-04-26T04:09:53.189Z,100.00
2023-04-26T04:12:58.215Z,100.00
2023-04-26T04:16:04.547Z,100.00
2023-04-26T04:19:09.312Z,100.00
2023-04-26T04:22:13.972Z,100.00
2023-04-26T04:25:21.088Z,100.00
2023-04-26T04:28:27.155Z,100.00
2023-04-26T04:31:31.917Z,100.00
2023-04-26T04:34:36.872Z,100.00
2023-04-26T04:37:43.922Z,100.00
2023-04-26T04:40:50.173Z,100.00
2023-04-26T04:43:55.848Z,100.00
2023-04-26T04:47:00.733Z,100.00
2023-04-26T04:50:09.171Z,100.00
2023-04-26T04:53:14.404Z,100.00
2023-04-26T04:56:21.790Z,100.00
2023-04-26T04:59:27.955Z,100.00
2023-04-26T05:02:33.010Z,100.00
2023-04-26T05:05:38.694Z,100.00
2023-04-26T05:08:43.163Z,100.00
2023-04-26T05:11:47.943Z,100.00
2023-04-26T05:14:53.871Z,100.00
2023-04-26T05:17:59.632Z,100.00
2023-04-26T05:21:04.449Z,100.00
2023-04-26T05:24:10.985Z,100.00
2023-04-26T05:27:16.440Z,100.00
2023-04-26T05:30:28.906Z,100.00
2023-04-26T05:33:42.487Z,100.00
2023-04-26T05:36:56.338Z,100.00
2023-04-26T05:40:00.853Z,100.00
2023-04-26T05:43:05.491Z,100.00
2023-04-26T05:46:12.021Z,100.00
2023-04-26T05:49:18.138Z,100.00
2023-04-26T05:52:22.652Z,100.00
2023-04-26T05:55:27.459Z,100.00
2023-04-26T05:58:33.986Z,100.00
2023-04-26T06:01:39.608Z,100.00
2023-04-26T06:04:44.540Z,100.00
2023-04-26T06:07:53.279Z,100.00
2023-04-26T06:10:57.811Z,100.00
2023-04-26T06:14:02.389Z,100.00
2023-04-26T06:17:09.541Z,100.00
2023-04-26T06:20:16.438Z,100.00
2023-04-26T06:23:21.107Z,100.00
2023-04-26T06:26:25.692Z,100.00
2023-04-26T06:29:32.852Z,100.00
2023-04-26T06:32:38.702Z,100.00
2023-04-26T06:35:43.557Z,100.00
2023-04-26T06:38:49.604Z,100.00
2023-04-26T06:41:54.747Z,100.00
2023-04-26T06:45:06.680Z,100.00
2023-04-26T06:48:13.949Z,100.00
2023-04-26T06:51:18.453Z,100.00
2023-04-26T06:54:28.881Z,100.00
2023-04-26T06:57:33.391Z,100.00
2023-04-26T07:00:38.014Z,100.00
2023-04-26T07:03:42.946Z,100.00
2023-04-26T07:06:47.706Z,100.00
2023-04-26T07:09:52.584Z,100.00
2023-04-26T07:12:57.050Z,100.00
2023-04-26T07:16:01.632Z,100.00
2023-04-26T07:19:06.966Z,100.00
2023-04-26T07:22:12.034Z,100.00
2023-04-26T07:25:17.315Z,100.00
2023-04-26T07:28:21.764Z,100.00
2023-04-26T07:31:26.318Z,100.00
2023-04-26T07:34:30.824Z,100.00
2023-04-26T07:37:35.387Z,100.00
2023-04-26T07:40:40.404Z,99.69
2023-04-26T07:43:44.813Z,93.98
2023-04-26T07:46:51.125Z,88.06
2023-04-26T07:49:55.671Z,97.16
2023-04-26T07:53:00.333Z,88.27
2023-04-26T07:56:07.695Z,89.60
2023-04-26T07:59:12.165Z,88.00
2023-04-26T08:02:17.132Z,76.62
2023-04-26T08:05:22.930Z,73.34
2023-04-26T08:08:28.070Z,62.82
2023-04-26T08:11:32.679Z,59.82
2023-04-26T08:14:38.421Z,60.13
2023-04-26T08:17:43.000Z,57.46
2023-04-26T08:20:47.627Z,59.72
2023-04-26T08:23:54.194Z,59.68
2023-04-26T08:26:59.140Z,53.33
2023-04-26T08:30:05.255Z,56.13
2023-04-26T08:33:10.290Z,52.80
2023-04-26T08:36:15.304Z,55.46
2023-04-26T08:39:19.791Z,52.74
2023-04-26T08:42:25.831Z,53.78
2023-04-26T08:45:31.227Z,51.68
2023-04-26T08:48:37.441Z,50.18
2023-04-26T08:51:44.835Z,51.58
2023-04-26T08:54:51.707Z,51.18
2023-04-26T08:57:58.445Z,52.03
2023-04-26T09:01:03.767Z,51.42
2023-04-26T09:04:08.941Z,48.98
2023-04-26T09:07:21.279Z,44.56
2023-04-26T09:10:26.300Z,50.66
2023-04-26T09:13:30.925Z,48.23
2023-04-26T09:16:36.903Z,48.70
2023-04-26T09:19:44.705Z,48.16
2023-04-26T09:22:54.617Z,49.78
2023-04-26T09:26:21.518Z,48.93
2023-04-26T09:29:26.025Z,47.62
2023-04-26T09:32:51.151Z,45.71
2023-04-26T09:35:55.681Z,46.32
2023-04-26T09:39:00.412Z,45.74
2023-04-26T09:42:05.264Z,43.54
2023-04-26T09:45:10.356Z,45.09
2023-04-26T09:48:33.238Z,45.81
2023-04-26T09:51:37.785Z,44.70
2023-04-26T09:54:46.637Z,43.41
2023-04-26T09:57:51.190Z,44.15
2023-04-26T10:00:56.412Z,39.87
2023-04-26T10:04:02.134Z,43.28
2023-04-26T10:07:10.020Z,41.91
2023-04-26T10:10:14.874Z,41.85
2023-04-26T10:13:19.603Z,41.84
2023-04-26T10:16:24.462Z,43.53
2023-04-26T10:19:32.893Z,43.50
2023-04-26T10:22:45.164Z,44.45
2023-04-26T10:25:49.816Z,44.61
2023-04-26T10:28:59.972Z,44.30
2023-04-26T10:32:08.154Z,44.34
2023-04-26T10:35:13.904Z,44.35
2023-04-26T10:38:20.043Z,43.37
2023-04-26T10:41:31.684Z,45.09
2023-04-26T10:44:42.759Z,42.22
2023-04-26T10:47:47.757Z,44.28
2023-04-26T10:51:01.752Z,44.73
2023-04-26T10:54:07.354Z,46.52
2023-04-26T10:57:12.316Z,48.08
2023-04-26T11:00:34.865Z,49.08
2023-04-26T11:03:41.278Z,46.13
2023-04-26T11:06:57.716Z,45.68
2023-04-26T11:10:09.454Z,41.93
2023-04-26T11:13:16.801Z,42.25
2023-04-26T11:16:21.611Z,40.57
2023-04-26T11:19:26.853Z,44.62
2023-04-26T11:22:31.476Z,42.65
2023-04-26T11:25:39.409Z,43.91
2023-04-26T11:28:45.289Z,45.49
2023-04-26T11:31:56.613Z,39.71
2023-04-26T11:35:01.373Z,41.64
2023-04-26T11:38:05.943Z,42.16
2023-04-26T11:41:11.347Z,41.69
2023-04-26T11:44:19.978Z,42.03
2023-04-26T11:47:26.035Z,43.86
2023-04-26T11:50:32.980Z,44.70
2023-04-26T11:53:43.733Z,43.31
2023-04-26T11:56:48.286Z,41.06
2023-04-26T12:00:08.734Z,40.49
2023-04-26T12:03:16.378Z,38.34
2023-04-26T12:06:29.033Z,40.78
2023-04-26T12:09:33.467Z,42.38
2023-04-26T12:12:37.913Z,42.15
2023-04-26T12:15:42.380Z,41.55
2023-04-26T12:18:51.983Z,39.94
2023-04-26T12:21:56.594Z,39.54
2023-04-26T12:25:07.465Z,36.22
2023-04-26T12:28:13.751Z,36.89
2023-04-26T12:31:18.510Z,39.24
2023-04-26T12:34:23.205Z,40.33
2023-04-26T12:37:27.736Z,41.33
2023-04-26T12:40:33.709Z,41.93
2023-04-26T12:43:38.143Z,42.27
2023-04-26T12:46:42.791Z,40.86
2023-04-26T12:49:47.305Z,40.74
2023-04-26T12:52:51.928Z,38.93
2023-04-26T12:55:56.361Z,38.23
2023-04-26T12:59:00.911Z,37.32
2023-04-26T13:02:05.714Z,39.78
2023-04-26T13:05:10.778Z,38.51
2023-04-26T13:08:15.611Z,41.43
2023-04-26T13:11:20.351Z,41.54
2023-04-26T13:14:24.910Z,41.56
2023-04-26T13:17:29.409Z,40.51
2023-04-26T13:20:34.015Z,41.65
2023-04-26T13:23:38.536Z,41.45
2023-04-26T13:26:43.035Z,41.60
2023-04-26T13:29:47.486Z,39.85
2023-04-26T13:32:52.599Z,38.30
2023-04-26T13:35:57.049Z,37.03
2023-04-26T13:39:01.721Z,40.16
2023-04-26T13:42:06.184Z,37.22
2023-04-26T13:45:11.190Z,34.67
2023-04-26T13:48:16.004Z,37.35
2023-04-26T13:51:21.721Z,37.54
2023-04-26T13:54:26.913Z,38.30
2023-04-26T13:57:32.715Z,39.15
2023-04-26T14:00:37.650Z,36.87
2023-04-26T14:03:42.790Z,37.96
2023-04-26T14:06:47.505Z,38.65
2023-04-26T14:09:52.066Z,39.14
2023-04-26T14:12:56.780Z,36.49
2023-04-26T14:16:01.452Z,37.36
2023-04-26T14:19:07.969Z,35.15
2023-04-26T14:22:12.944Z,35.37
2023-04-26T14:25:17.613Z,35.62
2023-04-26T14:28:22.319Z,35.88
2023-04-26T14:31:28.103Z,36.43
2023-04-26T14:34:34.288Z,32.67
2023-04-26T14:37:39.894Z,36.67
2023-04-26T14:40:45.408Z,37.65
2023-04-26T14:43:50.745Z,37.22
2023-04-26T14:46:55.259Z,36.90
2023-04-26T14:49:59.915Z,36.23
2023-04-26T14:53:04.572Z,35.34
2023-04-26T14:56:09.482Z,36.54
2023-04-26T14:59:15.965Z,35.39
2023-04-26T15:02:21.533Z,35.77
2023-04-26T15:05:26.298Z,36.89
2023-04-26T15:08:30.838Z,38.46
2023-04-26T15:11:35.395Z,38.69
2023-04-26T15:14:39.874Z,36.88
2023-04-26T15:17:44.455Z,36.45
2023-04-26T15:20:49.044Z,36.18
2023-04-26T15:23:53.790Z,35.93
2023-04-26T15:26:58.270Z,36.56
2023-04-26T15:30:05.713Z,37.34
2023-04-26T15:33:12.653Z,35.56
2023-04-26T15:36:19.710Z,39.33
2023-04-26T15:39:24.188Z,35.32
2023-04-26T15:42:28.671Z,34.66
2023-04-26T15:45:35.707Z,35.09
2023-04-26T15:48:40.372Z,34.52
2023-04-26T15:51:44.861Z,34.63
2023-04-26T15:54:49.344Z,32.98
2023-04-26T15:57:53.886Z,33.91
2023-04-26T16:00:58.343Z,38.59
2023-04-26T16:04:05.213Z,37.77
2023-04-26T16:07:09.864Z,38.89
2023-04-26T16:10:14.556Z,40.38
2023-04-26T16:13:20.831Z,39.83
2023-04-26T16:16:25.686Z,39.61
2023-04-26T16:19:30.963Z,40.28
2023-04-26T16:22:36.998Z,40.64
2023-04-26T16:25:42.568Z,39.92
2023-04-26T16:28:47.247Z,39.45
2023-04-26T16:31:52.465Z,42.31
2023-04-26T16:34:57.189Z,41.55
2023-04-26T16:38:01.838Z,41.72
2023-04-26T16:41:07.206Z,42.20
2023-04-26T16:44:11.669Z,41.78
2023-04-26T16:47:16.113Z,42.14
2023-04-26T16:50:20.766Z,40.88
2023-04-26T16:53:25.215Z,41.23
2023-04-26T16:56:30.021Z,40.91
2023-04-26T16:59:34.534Z,41.90
2023-04-26T17:02:40.335Z,41.57
2023-04-26T17:05:46.992Z,48.04
2023-04-26T17:08:51.717Z,41.33
2023-04-26T17:11:56.220Z,42.98
2023-04-26T17:15:04.344Z,41.81
2023-04-26T17:18:09.962Z,40.96
2023-04-26T17:21:14.486Z,43.18
2023-04-26T17:24:19.382Z,41.83
2023-04-26T17:27:24.801Z,41.48
2023-04-26T17:30:29.349Z,41.92
2023-04-26T17:33:36.796Z,41.66
2023-04-26T17:36:41.280Z,40.59
2023-04-26T17:39:45.901Z,41.70
2023-04-26T17:42:50.575Z,42.23
2023-04-26T17:45:55.597Z,41.77
2023-04-26T17:49:00.236Z,42.51
2023-04-26T17:52:04.844Z,43.03
2023-04-26T17:55:10.105Z,42.80
2023-04-26T17:58:15.292Z,42.70
2023-04-26T18:01:21.024Z,43.29
2023-04-26T18:04:25.801Z,42.70
2023-04-26T18:07:30.585Z,44.71
2023-04-26T18:10:35.433Z,44.44
2023-04-26T18:13:39.856Z,43.44
2023-04-26T18:16:44.365Z,43.37
2023-04-26T18:19:49.895Z,43.81
2023-04-26T18:22:54.428Z,43.69
2023-04-26T18:25:58.892Z,43.35
2023-04-26T18:29:03.449Z,43.66
2023-04-26T18:32:08.094Z,43.06
2023-04-26T18:35:12.767Z,42.42
2023-04-26T18:38:17.630Z,42.81
2023-04-26T18:41:23.716Z,42.99
2023-04-26T18:44:28.260Z,42.84
2023-04-26T18:47:34.851Z,43.09
2023-04-26T18:50:39.387Z,42.97
2023-04-26T18:53:44.614Z,42.33
2023-04-26T18:56:49.176Z,42.86
2023-04-26T18:59:56.455Z,42.50
2023-04-26T19:03:01.129Z,42.46
2023-04-26T19:06:09.397Z,43.42
2023-04-26T19:09:14.436Z,43.62
2023-04-26T19:12:19.106Z,41.34
2023-04-26T19:15:23.594Z,42.78
2023-04-26T19:18:28.162Z,45.15
2023-04-26T19:21:33.110Z,44.60
2023-04-26T19:24:37.663Z,41.90
2023-04-26T19:27:42.254Z,41.63
2023-04-26T19:30:46.755Z,44.72
2023-04-26T19:33:51.486Z,48.28
2023-04-26T19:36:56.016Z,51.23
2023-04-26T19:40:00.647Z,53.96
2023-04-26T19:43:05.229Z,56.03
2023-04-26T19:46:15.150Z,57.42
2023-04-26T19:49:19.825Z,61.41
2023-04-26T19:52:24.413Z,60.78
2023-04-26T19:55:29.548Z,64.44
2023-04-26T19:58:34.094Z,61.31
2023-04-26T20:01:38.689Z,62.93
2023-04-26T20:04:44.940Z,64.84
2023-04-26T20:07:49.443Z,63.12
2023-04-26T20:10:53.876Z,64.37
2023-04-26T20:13:58.458Z,64.18
2023-04-26T20:17:03.192Z,66.70
2023-04-26T20:20:08.925Z,67.74
2023-04-26T20:23:13.422Z,65.25
2023-04-26T20:26:17.915Z,67.51
2023-04-26T20:29:22.616Z,70.77
2023-04-26T20:32:27.080Z,71.40
2023-04-26T20:35:31.644Z,66.75
2023-04-26T20:38:36.169Z,68.99
2023-04-26T20:41:40.823Z,75.85
2023-04-26T20:44:45.647Z,80.40
2023-04-26T20:47:50.101Z,83.46
2023-04-26T20:50:55.022Z,84.29
2023-04-26T20:53:59.511Z,78.82
2023-04-26T20:57:04.410Z,77.19
2023-04-26T21:00:13.101Z,78.73
2023-04-26T21:03:17.706Z,77.33
2023-04-26T21:06:22.321Z,82.21
2023-04-26T21:09:26.817Z,80.55
2023-04-26T21:12:31.290Z,76.93
2023-04-26T21:15:35.949Z,79.91
2023-04-26T21:18:40.724Z,82.09
2023-04-26T21:21:45.379Z,77.83
2023-04-26T21:24:52.871Z,87.31
2023-04-26T21:27:58.701Z,83.57
2023-04-26T21:31:07.492Z,81.52
2023-04-26T21:34:13.707Z,80.08
2023-04-26T21:37:18.256Z,79.03
2023-04-26T21:40:22.735Z,78.43
2023-04-26T21:43:29.013Z,79.50
2023-04-26T21:46:33.712Z,83.24
2023-04-26T21:49:39.583Z,88.04
2023-04-26T21:52:44.164Z,81.21
2023-04-26T21:55:52.762Z,84.14
2023-04-26T21:58:57.345Z,90.48
2023-04-26T22:02:02.929Z,96.02
2023-04-26T22:05:07.897Z,90.97
2023-04-26T22:08:12.405Z,94.33
2023-04-26T22:11:16.970Z,96.05
2023-04-26T22:14:21.629Z,96.88
2023-04-26T22:17:26.300Z,100.00
2023-04-26T22:20:30.949Z,98.28
2023-04-26T22:23:36.714Z,94.42
2023-04-26T22:26:41.299Z,90.67
2023-04-26T22:29:45.974Z,88.84
2023-04-26T22:32:53.536Z,100.00
2023-04-26T22:35:59.486Z,100.00
2023-04-26T22:39:03.994Z,100.00
2023-04-26T22:42:08.637Z,91.26
2023-04-26T22:45:13.697Z,92.68
2023-04-26T22:48:18.246Z,97.34
2023-04-26T22:51:22.921Z,97.27
2023-04-26T22:54:27.372Z,97.87
2023-04-26T22:57:31.903Z,97.57
2023-04-26T23:00:36.622Z,94.04
2023-04-26T23:03:41.374Z,94.37
2023-04-26T23:06:46.097Z,96.50
2023-04-26T23:09:50.654Z,99.69
2023-04-26T23:12:55.348Z,100.00
2023-04-26T23:15:59.823Z,100.00
2023-04-26T23:19:04.364Z,100.00
2023-04-26T23:22:09.051Z,100.00
2023-04-26T23:25:13.539Z,100.00
2023-04-26T23:28:18.102Z,100.00
2023-04-26T23:31:22.794Z,100.00
2023-04-26T23:34:27.363Z,100.00
2023-04-26T23:37:31.937Z,100.00
2023-04-26T23:40:37.195Z,100.00
2023-04-26T23:43:42.089Z,100.00
2023-04-26T23:46:46.818Z,100.00
2023-04-26T23:49:52.697Z,100.00
2023-04-26T23:52:57.242Z,100.00
2023-04-26T23:56:01.794Z,100.00
2023-04-26T23:59:06.754Z,100.00
